Terminal Aerodrome Forecast
Issued by NWS Central Illinois

Home | Current Version | Previous Version | Text Only | Print | Product List | Glossary On
Versions: 1 2 3 4 5 6 7 8 9 10 11 12
000
FTUS43 KILX 122300
TAFPIA
TAF
KPIA 122337Z 1300/1324 20012KT P6SM BKN120
     FM130200 21012KT P6SM -RA VCTS SCT050CB BKN100
      TEMPO 1303/1307 VRB20G35KT 2SM TSRA BKN030CB
     FM131100 26007KT 6SM BR BKN100
     FM131600 30008KT P6SM SCT040=

USA.gov is the U.S. government's official web portal to all federal, state and local government web resources and services.